createdAt,value
2017-09-05T00:00:47.556Z,84.10
2017-09-05T00:03:15.150Z,84.00
2017-09-05T00:05:42.741Z,83.80
2017-09-05T00:08:22.049Z,83.80
2017-09-05T00:11:01.413Z,84.30
2017-09-05T00:13:38.944Z,84.40
2017-09-05T00:16:22.520Z,83.80
2017-09-05T00:18:56.425Z,83.90
2017-09-05T00:21:29.662Z,83.60
2017-09-05T00:23:57.242Z,83.70
2017-09-05T00:26:24.856Z,83.50
2017-09-05T00:28:52.450Z,83.60
2017-09-05T00:31:20.020Z,84.10
2017-09-05T00:33:47.630Z,84.10
2017-09-05T00:36:15.201Z,84.10
2017-09-05T00:38:43.787Z,83.70
2017-09-05T00:41:11.400Z,83.50
2017-09-05T00:43:39.009Z,82.80
2017-09-05T00:46:06.610Z,83.20
2017-09-05T00:48:34.198Z,83.50
2017-09-05T00:51:01.796Z,83.70
2017-09-05T00:53:29.352Z,82.60
2017-09-05T00:55:56.967Z,82.60
2017-09-05T00:58:25.388Z,83.00
2017-09-05T01:00:53.002Z,83.00
2017-09-05T01:03:20.619Z,84.10
2017-09-05T01:05:48.241Z,83.40
2017-09-05T01:08:15.838Z,83.90
2017-09-05T01:10:43.442Z,83.60
2017-09-05T01:13:11.045Z,83.40
2017-09-05T01:15:38.667Z,83.00
2017-09-05T01:18:06.226Z,83.50
2017-09-05T01:20:33.819Z,83.50
2017-09-05T01:23:01.439Z,83.60
2017-09-05T01:25:29.037Z,83.60
2017-09-05T01:27:56.631Z,83.60
2017-09-05T01:30:24.232Z,83.90
2017-09-05T01:32:51.810Z,84.00
2017-09-05T01:35:19.428Z,83.90
2017-09-05T01:37:47.817Z,84.00
2017-09-05T01:40:15.392Z,83.90
2017-09-05T01:42:42.974Z,83.90
2017-09-05T01:45:10.548Z,84.10
2017-09-05T01:47:38.150Z,84.10
2017-09-05T01:50:05.743Z,84.00
2017-09-05T01:52:33.340Z,84.30
2017-09-05T01:55:00.926Z,84.00
2017-09-05T01:57:28.476Z,83.50
2017-09-05T01:59:56.092Z,83.90
2017-09-05T02:02:23.674Z,83.90
2017-09-05T02:04:51.321Z,84.10
2017-09-05T02:07:18.879Z,84.20
2017-09-05T02:09:46.471Z,84.20
2017-09-05T02:12:14.062Z,84.70
2017-09-05T02:14:42.446Z,84.40
2017-09-05T02:17:10.102Z,84.20
2017-09-05T02:19:37.675Z,84.50
2017-09-05T02:22:06.045Z,84.30
2017-09-05T02:24:33.611Z,84.40
2017-09-05T02:27:01.178Z,84.40
2017-09-05T02:29:28.752Z,84.00
2017-09-05T02:31:56.333Z,84.30
2017-09-05T02:34:23.905Z,83.90
2017-09-05T02:36:51.509Z,84.00
2017-09-05T02:39:19.090Z,83.90
2017-09-05T02:41:46.674Z,84.30
2017-09-05T02:44:14.280Z,84.20
2017-09-05T02:46:41.873Z,84.10
2017-09-05T02:49:11.154Z,84.30
2017-09-05T02:51:38.747Z,84.40
2017-09-05T02:54:07.851Z,84.50
2017-09-05T02:56:35.456Z,84.30
2017-09-05T02:59:03.035Z,84.30
2017-09-05T03:01:30.620Z,84.20
2017-09-05T03:03:58.248Z,83.80
2017-09-05T03:06:25.845Z,83.90
2017-09-05T03:08:53.394Z,83.90
2017-09-05T03:11:20.978Z,83.90
2017-09-05T03:13:48.565Z,84.10
2017-09-05T03:16:16.165Z,84.10
2017-09-05T03:18:43.746Z,84.10
2017-09-05T03:21:11.337Z,85.00
2017-09-05T03:23:38.919Z,85.20
2017-09-05T03:26:06.514Z,85.00
2017-09-05T03:28:34.082Z,85.30
2017-09-05T03:31:01.684Z,85.50
2017-09-05T03:33:29.286Z,85.30
2017-09-05T03:35:56.868Z,85.20
2017-09-05T03:38:24.476Z,85.10
2017-09-05T03:40:52.091Z,85.10
2017-09-05T03:43:19.685Z,85.20
2017-09-05T03:45:47.280Z,85.50
2017-09-05T03:48:16.323Z,85.60
2017-09-05T03:50:43.930Z,85.70
2017-09-05T03:53:11.508Z,85.10
2017-09-05T03:55:39.108Z,85.00
2017-09-05T03:58:07.584Z,85.30
2017-09-05T04:00:35.228Z,85.00
2017-09-05T04:03:03.527Z,84.90
2017-09-05T04:05:31.133Z,84.90
2017-09-05T04:07:58.710Z,85.10
2017-09-05T04:10:26.277Z,85.10
2017-09-05T04:12:53.844Z,85.00
2017-09-05T04:15:21.482Z,84.90
2017-09-05T04:17:49.105Z,85.10
2017-09-05T04:20:16.655Z,84.70
2017-09-05T04:22:44.256Z,84.60
2017-09-05T04:25:11.828Z,85.10
2017-09-05T04:27:39.409Z,85.40
2017-09-05T04:30:07.018Z,85.20
2017-09-05T04:32:34.594Z,85.20
2017-09-05T04:35:02.154Z,84.80
2017-09-05T04:37:29.769Z,85.20
2017-09-05T04:39:57.373Z,85.30
2017-09-05T04:42:24.952Z,85.20
2017-09-05T04:44:52.571Z,85.00
2017-09-05T04:47:20.159Z,85.00
2017-09-05T04:49:47.733Z,85.10
2017-09-05T04:52:15.296Z,85.10
2017-09-05T04:54:42.905Z,85.10
2017-09-05T04:57:11.450Z,85.40
2017-09-05T04:59:39.093Z,85.60
2017-09-05T05:02:06.654Z,85.50
2017-09-05T05:04:34.259Z,85.40
2017-09-05T05:07:01.851Z,85.50
2017-09-05T05:09:29.420Z,85.50
2017-09-05T05:11:57.000Z,85.60
2017-09-05T05:14:24.601Z,85.50
2017-09-05T05:16:52.199Z,85.40
2017-09-05T05:19:19.878Z,85.30
2017-09-05T05:21:47.460Z,85.10
2017-09-05T05:24:15.088Z,85.30
2017-09-05T05:26:42.693Z,85.00
2017-09-05T05:29:10.308Z,85.40
2017-09-05T05:31:37.894Z,85.40
2017-09-05T05:34:05.502Z,85.10
2017-09-05T05:36:33.101Z,84.70
2017-09-05T05:39:00.692Z,85.00
2017-09-05T05:41:28.276Z,85.00
2017-09-05T05:43:55.862Z,85.10
2017-09-05T05:46:23.431Z,85.20
2017-09-05T05:48:51.033Z,85.20
2017-09-05T05:51:18.612Z,84.00
2017-09-05T05:53:46.184Z,84.40
2017-09-05T05:56:13.790Z,84.40
2017-09-05T05:58:41.395Z,83.80
2017-09-05T06:01:09.006Z,83.00
2017-09-05T06:03:36.598Z,83.10
2017-09-05T06:06:04.206Z,82.70
2017-09-05T06:08:31.801Z,82.70
2017-09-05T06:11:01.380Z,83.10
2017-09-05T06:13:28.971Z,83.30
2017-09-05T06:15:56.558Z,83.40
2017-09-05T06:18:24.138Z,83.10
2017-09-05T06:20:51.764Z,82.60
2017-09-05T06:23:19.518Z,82.10
2017-09-05T06:25:48.360Z,82.50
2017-09-05T06:28:15.960Z,82.40
2017-09-05T06:30:43.532Z,82.30
2017-09-05T06:33:11.105Z,82.60
2017-09-05T06:35:38.718Z,81.50
2017-09-05T06:38:06.331Z,80.10
2017-09-05T06:40:33.901Z,80.60
2017-09-05T06:43:01.474Z,80.00
2017-09-05T06:45:29.058Z,80.60
2017-09-05T06:47:56.641Z,80.70
2017-09-05T06:50:24.252Z,81.10
2017-09-05T06:52:51.909Z,79.10
2017-09-05T06:55:19.965Z,79.40
2017-09-05T06:57:47.538Z,80.10
2017-09-05T07:00:15.118Z,80.20
2017-09-05T07:02:42.706Z,79.60
2017-09-05T07:05:10.282Z,79.20
2017-09-05T07:07:37.863Z,77.80
2017-09-05T07:10:05.450Z,76.60
2017-09-05T07:12:33.042Z,76.20
2017-09-05T07:15:00.649Z,76.10
2017-09-05T07:17:28.251Z,78.40
2017-09-05T07:19:55.867Z,77.70
2017-09-05T07:22:23.456Z,76.50
2017-09-05T07:24:51.035Z,75.00
2017-09-05T07:27:18.638Z,74.90
2017-09-05T07:29:46.194Z,73.30
2017-09-05T07:32:13.801Z,73.30
2017-09-05T07:34:41.391Z,73.20
2017-09-05T07:37:08.989Z,72.30
2017-09-05T07:39:36.558Z,75.10
2017-09-05T07:42:04.131Z,75.50
2017-09-05T07:44:32.159Z,74.50
2017-09-05T07:46:59.767Z,72.90
2017-09-05T07:49:27.362Z,72.50
2017-09-05T07:51:54.960Z,68.10
2017-09-05T07:54:22.569Z,67.70
2017-09-05T07:56:50.147Z,68.10
2017-09-05T07:59:17.736Z,68.20
2017-09-05T08:01:45.290Z,67.10
2017-09-05T08:04:12.918Z,66.30
2017-09-05T08:06:40.469Z,67.20
2017-09-05T08:09:08.047Z,66.50
2017-09-05T08:11:35.623Z,65.80
2017-09-05T08:14:03.195Z,65.50
2017-09-05T08:16:30.799Z,65.80
2017-09-05T08:18:58.401Z,65.00
2017-09-05T08:21:26.050Z,64.90
2017-09-05T08:23:53.620Z,63.90
2017-09-05T08:26:21.222Z,63.50
2017-09-05T08:28:48.882Z,65.00
2017-09-05T08:31:17.939Z,64.50
2017-09-05T08:33:45.523Z,63.70
2017-09-05T08:36:13.122Z,64.60
2017-09-05T08:38:40.808Z,64.00
2017-09-05T08:41:08.372Z,63.20
2017-09-05T08:43:35.926Z,63.20
2017-09-05T08:46:03.572Z,63.80
2017-09-05T08:48:31.191Z,62.30
2017-09-05T08:50:58.800Z,61.50
2017-09-05T08:53:26.358Z,63.80
2017-09-05T08:55:53.970Z,63.90
2017-09-05T08:58:21.544Z,63.00
2017-09-05T09:00:49.161Z,63.10
2017-09-05T09:03:16.728Z,62.60
2017-09-05T09:05:44.312Z,61.80
2017-09-05T09:08:11.903Z,62.10
2017-09-05T09:10:39.638Z,62.10
2017-09-05T09:13:08.196Z,61.80
2017-09-05T09:15:36.065Z,61.20
2017-09-05T09:18:03.668Z,60.70
2017-09-05T09:20:31.248Z,59.90
2017-09-05T09:22:58.842Z,60.00
2017-09-05T09:25:27.192Z,58.40
2017-09-05T09:27:54.771Z,58.10
2017-09-05T09:30:22.358Z,58.10
2017-09-05T09:32:49.932Z,58.60
2017-09-05T09:35:17.985Z,58.30
2017-09-05T09:37:45.650Z,58.30
2017-09-05T09:40:13.481Z,58.30
2017-09-05T09:42:41.079Z,58.40
2017-09-05T09:45:08.674Z,58.20
2017-09-05T09:47:36.470Z,58.90
2017-09-05T09:50:04.377Z,58.00
2017-09-05T09:52:32.415Z,58.60
2017-09-05T09:55:00.846Z,58.50
2017-09-05T09:57:29.352Z,57.30
2017-09-05T09:59:59.479Z,57.40
2017-09-05T10:02:27.972Z,58.30
2017-09-05T10:04:57.312Z,57.40
2017-09-05T10:07:24.940Z,57.30
2017-09-05T10:09:53.032Z,57.40
2017-09-05T10:12:22.773Z,57.50
2017-09-05T10:14:51.023Z,56.90
2017-09-05T10:17:19.543Z,57.30
2017-09-05T10:19:47.190Z,57.40
2017-09-05T10:22:15.504Z,56.10
2017-09-05T10:24:44.702Z,56.60
2017-09-05T10:27:12.918Z,55.60
2017-09-05T10:29:41.010Z,56.00
2017-09-05T10:32:09.316Z,54.70
2017-09-05T10:34:36.954Z,55.40
2017-09-05T10:37:05.209Z,55.30
2017-09-05T10:39:33.277Z,55.90
2017-09-05T10:42:01.664Z,54.00
2017-09-05T10:44:30.429Z,54.80
2017-09-05T10:46:58.121Z,54.70
2017-09-05T10:49:25.767Z,54.10
2017-09-05T10:51:54.378Z,52.80
2017-09-05T10:54:22.809Z,52.00
2017-09-05T10:56:50.932Z,50.10
2017-09-05T10:59:18.850Z,47.90
2017-09-05T11:01:46.471Z,48.10
2017-09-05T11:04:14.924Z,48.10
2017-09-05T11:06:43.693Z,46.30
2017-09-05T11:09:16.083Z,47.10
2017-09-05T11:11:44.019Z,46.10
2017-09-05T11:14:11.684Z,46.70
2017-09-05T11:16:40.360Z,46.50
2017-09-05T11:21:44.340Z,46.00
2017-09-05T11:24:13.540Z,45.40
2017-09-05T11:26:42.097Z,44.60
2017-09-05T11:29:11.379Z,44.40
2017-09-05T11:31:44.769Z,44.10
2017-09-05T11:34:12.927Z,45.20
2017-09-05T11:36:43.248Z,44.40
2017-09-05T11:39:16.404Z,43.20
2017-09-05T11:41:44.041Z,43.80
2017-09-05T11:44:11.660Z,43.90
2017-09-05T11:46:39.994Z,42.10
2017-09-05T11:49:12.442Z,42.20
2017-09-05T11:51:40.177Z,43.80
2017-09-05T11:54:10.162Z,44.40
2017-09-05T11:56:38.413Z,41.70
2017-09-05T11:59:09.022Z,43.10
2017-09-05T12:01:36.814Z,41.30
2017-09-05T12:04:06.969Z,42.40
2017-09-05T12:06:36.596Z,42.40
2017-09-05T12:09:06.794Z,42.70
2017-09-05T12:11:37.069Z,41.00
2017-09-05T12:14:06.337Z,41.50
2017-09-05T12:16:35.189Z,41.20
2017-09-05T12:19:05.203Z,40.80
2017-09-05T12:21:35.443Z,42.30
2017-09-05T12:24:05.929Z,42.70
2017-09-05T12:26:34.071Z,43.50
2017-09-05T12:29:04.000Z,44.20
2017-09-05T12:31:40.492Z,45.00
2017-09-05T12:34:08.238Z,45.80
2017-09-05T12:36:43.473Z,46.90
2017-09-05T12:39:11.944Z,46.90
2017-09-05T12:41:55.100Z,46.00
2017-09-05T12:44:25.418Z,45.50
2017-09-05T12:46:55.350Z,45.30
2017-09-05T12:49:23.218Z,47.00
2017-09-05T12:51:52.445Z,47.00
2017-09-05T12:54:21.545Z,46.90
2017-09-05T12:56:49.294Z,48.30
2017-09-05T12:59:17.009Z,46.80
2017-09-05T13:01:44.680Z,47.90
2017-09-05T13:04:14.250Z,47.80
2017-09-05T13:06:42.463Z,46.70
2017-09-05T13:09:10.235Z,47.10
2017-09-05T13:11:37.876Z,45.40
2017-09-05T13:14:06.450Z,44.90
2017-09-05T13:16:34.560Z,45.70
2017-09-05T13:19:07.019Z,48.10
2017-09-05T13:21:36.282Z,45.00
2017-09-05T13:24:03.903Z,47.30
2017-09-05T13:26:31.787Z,45.20
2017-09-05T13:28:59.415Z,44.40
2017-09-05T13:31:27.022Z,44.60
2017-09-05T13:33:54.639Z,45.00
2017-09-05T13:36:22.253Z,45.20
2017-09-05T13:38:49.871Z,44.90
2017-09-05T13:41:17.495Z,45.30
2017-09-05T13:43:45.080Z,46.20
2017-09-05T13:46:12.654Z,45.60
2017-09-05T13:48:40.262Z,45.40
2017-09-05T13:51:07.889Z,45.40
2017-09-05T13:53:35.464Z,46.50
2017-09-05T13:56:03.121Z,46.80
2017-09-05T13:58:30.753Z,43.80
2017-09-05T14:00:59.295Z,42.80
2017-09-05T14:03:26.975Z,42.80
2017-09-05T14:05:55.629Z,44.20
2017-09-05T14:08:23.398Z,45.10
2017-09-05T14:10:50.983Z,47.10
2017-09-05T14:13:18.906Z,47.20
2017-09-05T14:15:46.689Z,45.80
2017-09-05T14:18:15.077Z,44.70
2017-09-05T14:20:46.176Z,44.40
2017-09-05T14:23:13.815Z,44.50
2017-09-05T14:25:41.396Z,45.40
2017-09-05T14:28:08.982Z,46.30
2017-09-05T14:30:36.651Z,47.70
2017-09-05T14:33:04.283Z,47.70
2017-09-05T14:35:31.945Z,48.00
2017-09-05T14:37:59.537Z,48.00
2017-09-05T14:40:27.166Z,49.60
2017-09-05T14:42:54.757Z,48.20
2017-09-05T14:45:23.814Z,47.40
2017-09-05T14:47:51.463Z,48.60
2017-09-05T14:50:19.160Z,49.20
2017-09-05T14:52:46.759Z,49.90
2017-09-05T14:55:15.809Z,48.40
2017-09-05T14:57:43.592Z,48.10
2017-09-05T15:00:12.048Z,47.80
2017-09-05T15:02:40.564Z,48.30
2017-09-05T15:05:09.490Z,49.10
2017-09-05T15:07:37.132Z,50.50
2017-09-05T15:10:07.612Z,51.20
2017-09-05T15:12:35.271Z,50.70
2017-09-05T15:15:03.776Z,50.10
2017-09-05T15:17:32.201Z,49.90
2017-09-05T15:20:00.507Z,49.50
2017-09-05T15:22:29.125Z,48.30
2017-09-05T15:24:58.694Z,48.60
2017-09-05T15:27:28.999Z,48.80
2017-09-05T15:29:57.341Z,49.20
2017-09-05T15:32:25.302Z,49.80
2017-09-05T15:34:53.558Z,49.40
2017-09-05T15:37:21.161Z,48.70
2017-09-05T15:39:48.742Z,48.50
2017-09-05T15:42:16.322Z,48.90
2017-09-05T15:44:43.938Z,49.20
2017-09-05T15:47:11.495Z,49.60
2017-09-05T15:49:39.104Z,49.90
2017-09-05T15:52:06.705Z,50.70
2017-09-05T15:54:34.301Z,50.30
2017-09-05T15:57:01.904Z,50.50
2017-09-05T15:59:29.504Z,50.40
2017-09-05T16:01:57.160Z,50.60
2017-09-05T16:04:24.775Z,51.40
2017-09-05T16:06:52.474Z,51.80
2017-09-05T16:09:20.043Z,50.80
2017-09-05T16:11:48.480Z,51.80
2017-09-05T16:14:16.122Z,50.80
2017-09-05T16:16:43.748Z,50.80
2017-09-05T16:19:12.101Z,51.20
2017-09-05T16:21:39.726Z,51.80
2017-09-05T16:24:07.351Z,51.00
2017-09-05T16:26:34.961Z,50.80
2017-09-05T16:29:02.561Z,51.50
2017-09-05T16:31:30.168Z,50.80
2017-09-05T16:33:57.869Z,50.90
2017-09-05T16:36:25.611Z,51.40
2017-09-05T16:38:53.450Z,52.50
2017-09-05T16:41:22.688Z,52.70
2017-09-05T16:43:50.989Z,52.70
2017-09-05T16:46:18.607Z,52.70
2017-09-05T16:48:46.323Z,53.00
2017-09-05T16:51:13.937Z,53.20
2017-09-05T16:53:41.521Z,53.20
2017-09-05T16:56:09.090Z,54.10
2017-09-05T16:58:36.682Z,53.20
2017-09-05T17:01:04.258Z,53.20
2017-09-05T17:03:31.830Z,53.60
2017-09-05T17:05:59.458Z,53.40
2017-09-05T17:08:27.050Z,53.10
2017-09-05T17:10:54.636Z,53.90
2017-09-05T17:13:22.227Z,54.00
2017-09-05T17:15:50.782Z,54.30
2017-09-05T17:18:18.394Z,54.10
2017-09-05T17:20:46.003Z,54.30
2017-09-05T17:23:13.632Z,54.50
2017-09-05T17:25:41.289Z,54.40
2017-09-05T17:28:08.921Z,54.80
2017-09-05T17:30:36.527Z,55.10
2017-09-05T17:33:04.186Z,55.00
2017-09-05T17:35:31.802Z,55.40
2017-09-05T17:37:59.396Z,55.60
2017-09-05T17:40:26.999Z,55.80
2017-09-05T17:42:54.560Z,55.70
2017-09-05T17:45:22.202Z,55.10
2017-09-05T17:47:49.807Z,55.20
2017-09-05T17:50:17.439Z,55.40
2017-09-05T17:52:45.380Z,55.70
2017-09-05T17:55:13.031Z,55.90
2017-09-05T17:57:40.649Z,55.80
2017-09-05T18:00:08.222Z,56.10
2017-09-05T18:02:35.815Z,56.10
2017-09-05T18:05:03.756Z,56.30
2017-09-05T18:07:31.605Z,56.30
2017-09-05T18:09:59.396Z,56.20
2017-09-05T18:12:27.027Z,56.50
2017-09-05T18:14:56.138Z,56.50
2017-09-05T18:17:26.012Z,56.70
2017-09-05T18:19:53.942Z,57.90
2017-09-05T18:22:21.574Z,58.20
2017-09-05T18:24:49.766Z,59.00
2017-09-05T18:27:17.409Z,59.80
2017-09-05T18:29:45.006Z,60.70
2017-09-05T18:32:14.332Z,61.20
2017-09-05T18:34:45.404Z,60.90
2017-09-05T18:37:14.608Z,62.20
2017-09-05T18:39:42.872Z,62.30
2017-09-05T18:42:11.173Z,62.90
2017-09-05T18:44:40.061Z,62.80
2017-09-05T18:47:07.735Z,62.80
2017-09-05T18:49:35.346Z,62.50
2017-09-05T18:52:04.686Z,63.20
2017-09-05T18:54:34.934Z,63.60
2017-09-05T18:57:04.286Z,63.80
2017-09-05T18:59:33.080Z,64.90
2017-09-05T19:02:03.794Z,65.10
2017-09-05T19:04:34.663Z,65.00
2017-09-05T19:07:02.715Z,65.50
2017-09-05T19:09:30.651Z,65.50
2017-09-05T19:11:58.257Z,67.50
2017-09-05T19:14:25.883Z,66.30
2017-09-05T19:16:55.179Z,66.10
2017-09-05T19:19:24.943Z,67.00
2017-09-05T19:21:54.504Z,66.40
2017-09-05T19:24:25.697Z,68.30
2017-09-05T19:26:54.300Z,68.00
2017-09-05T19:29:24.670Z,68.00
2017-09-05T19:31:55.579Z,68.80
2017-09-05T19:34:27.484Z,69.20
2017-09-05T19:36:57.237Z,69.80
2017-09-05T19:39:26.087Z,69.70
2017-09-05T19:41:56.693Z,69.50
2017-09-05T19:44:25.235Z,69.20
2017-09-05T19:46:54.297Z,69.20
2017-09-05T19:49:26.154Z,70.50
2017-09-05T19:51:56.529Z,69.90
2017-09-05T19:54:28.076Z,69.80
2017-09-05T19:56:56.474Z,70.50
2017-09-05T19:59:24.966Z,70.10
2017-09-05T20:01:55.842Z,69.70
2017-09-05T20:04:23.916Z,70.00
2017-09-05T20:06:52.830Z,70.60
2017-09-05T20:09:23.323Z,70.30
2017-09-05T20:11:52.509Z,70.00
2017-09-05T20:14:20.712Z,70.00
2017-09-05T20:16:50.383Z,70.90
2017-09-05T20:19:18.014Z,71.50
2017-09-05T20:21:46.501Z,71.30
2017-09-05T20:24:16.898Z,71.00
2017-09-05T20:26:45.720Z,71.10
2017-09-05T20:29:14.927Z,71.60
2017-09-05T20:31:44.634Z,71.70
2017-09-05T20:34:13.543Z,71.70
2017-09-05T20:36:44.066Z,72.20
2017-09-05T20:39:13.859Z,71.70
2017-09-05T20:41:42.691Z,72.10
2017-09-05T20:44:11.024Z,71.50
2017-09-05T20:46:41.235Z,72.10
2017-09-05T20:49:11.577Z,72.20
2017-09-05T20:51:40.957Z,73.00
2017-09-05T20:54:08.569Z,73.10
2017-09-05T20:56:36.153Z,73.80
2017-09-05T20:59:03.770Z,73.90
2017-09-05T21:01:31.374Z,74.00
2017-09-05T21:03:58.951Z,74.40
2017-09-05T21:06:26.544Z,75.30
2017-09-05T21:08:54.919Z,74.70
2017-09-05T21:11:22.502Z,75.00
2017-09-05T21:13:50.087Z,75.50
2017-09-05T21:16:17.688Z,75.50
2017-09-05T21:18:45.241Z,75.00
2017-09-05T21:21:12.838Z,74.70
2017-09-05T21:23:40.430Z,73.20
2017-09-05T21:26:08.029Z,72.90
2017-09-05T21:28:35.612Z,75.30
2017-09-05T21:31:03.195Z,76.90
2017-09-05T21:33:30.790Z,77.70
2017-09-05T21:35:58.383Z,80.10
2017-09-05T21:38:25.975Z,80.60
2017-09-05T21:40:55.779Z,81.20
2017-09-05T21:43:23.401Z,81.50
2017-09-05T21:45:53.954Z,80.30
2017-09-05T21:48:21.548Z,81.50
2017-09-05T21:50:49.140Z,84.00
2017-09-05T21:53:16.714Z,84.00
2017-09-05T21:55:44.307Z,84.50
2017-09-05T21:58:11.920Z,84.30
2017-09-05T22:00:39.519Z,85.30
2017-09-05T22:03:07.167Z,85.50
2017-09-05T22:05:34.788Z,85.60
2017-09-05T22:08:03.269Z,85.50
2017-09-05T22:10:30.845Z,85.70
2017-09-05T22:12:58.450Z,86.90
2017-09-05T22:15:32.432Z,85.40
2017-09-05T22:18:00.038Z,84.50
2017-09-05T22:20:33.448Z,85.10
2017-09-05T22:23:01.040Z,85.20
2017-09-05T22:25:34.381Z,85.20
2017-09-05T22:28:07.666Z,86.10
2017-09-05T22:30:35.868Z,86.20
2017-09-05T22:33:04.278Z,86.70
2017-09-05T22:35:31.873Z,87.00
2017-09-05T22:37:59.450Z,86.90
2017-09-05T22:40:27.853Z,87.00
2017-09-05T22:42:55.461Z,87.00
2017-09-05T22:45:23.074Z,87.00
2017-09-05T22:47:50.664Z,87.00
2017-09-05T22:50:18.269Z,86.70
2017-09-05T22:52:45.875Z,86.60
2017-09-05T22:55:13.486Z,86.70
2017-09-05T22:57:41.062Z,86.70
2017-09-05T23:00:08.640Z,86.90
2017-09-05T23:02:36.200Z,86.80
2017-09-05T23:05:04.257Z,86.90
2017-09-05T23:07:31.875Z,86.90
2017-09-05T23:09:59.479Z,86.70
2017-09-05T23:12:27.687Z,86.70
2017-09-05T23:14:56.449Z,86.60
2017-09-05T23:17:24.048Z,86.70
2017-09-05T23:19:52.852Z,87.10
2017-09-05T23:22:20.402Z,87.20
2017-09-05T23:24:48.143Z,87.10
2017-09-05T23:27:15.763Z,87.10
2017-09-05T23:29:43.335Z,86.90
2017-09-05T23:32:10.933Z,87.00
2017-09-05T23:34:38.534Z,86.90
2017-09-05T23:37:06.169Z,87.30
2017-09-05T23:39:34.461Z,87.30
2017-09-05T23:42:02.035Z,87.20
2017-09-05T23:44:29.600Z,87.10
2017-09-05T23:46:57.178Z,87.20
2017-09-05T23:49:24.760Z,87.00
2017-09-05T23:51:52.390Z,87.10
2017-09-05T23:54:20.307Z,87.00
2017-09-05T23:56:47.889Z,87.20
2017-09-05T23:59:15.514Z,87.20
